»·PEaware :: N228Q KMHV-KSNA

N228Q :: KMHV-KSNA

FLIGHT INFORMATION

Flight Status: Arrived
Operator: Privately registered:
United States
More flights under this callsign
Pilot: Chuck O. (4337)
Aircraft: BEECH AIRCRAFT BONANZA
(BE35)
More flights by this aircraft type
Origin: KMHV Mojave
United States
Destination: KSNA John Wayne-Orange Co
United States
More flights between these airports :: More routes between these airports
Route: JERID5 JERID V197 PMD V201 BERRI V459 SLI
File this flight plan on PilotEdge
Remarks:
Altitude:
(Current/Filed)
9,000ft
Speed:
(Current/Filed)
160kts
Departed: 24-Jun-23 01:00 PM
Arrived: 24-Jun-23 02:00 PM
Distance/Time
Traveled:
84nm/0:59
Distance/Time
To Go:
Arrived

Flight Plot

Page will automatically refresh every two minutes.

Flight plan parsing failed; only flown route is shown


Map Options




Map Legend


Flown Route
Filed Route
Departure Airport
Arrival Airport
Navaid (VOR, NDB)
Fix

Horizontal Profiles

Position Reports

Time Latitude Longitude Heading Altitude Ground
Speed
24-Jun-23 12:50 35.057195 -118.158491 30 2794ft 0kts
24-Jun-23 12:51 35.057198 -118.158489 30 2794ft 0kts
24-Jun-23 12:52 35.057201 -118.158487 30 2794ft 0kts
24-Jun-23 12:53 35.057204 -118.158485 30 2794ft 0kts
24-Jun-23 12:54 35.057207 -118.158483 30 2794ft 0kts
24-Jun-23 12:55 35.057344 -118.158070 58 2794ft 4kts
24-Jun-23 12:56 35.057528 -118.150928 84 2794ft 26kts
24-Jun-23 12:56 35.057582 -118.145874 90 2794ft 22kts
24-Jun-23 12:58 35.057561 -118.143348 89 2794ft 0kts
24-Jun-23 12:59 35.058583 -118.142608 4 2794ft 1kts
24-Jun-23 13:00 35.059194 -118.148258 268 2794ft 74kts
24-Jun-23 13:00 35.059029 -118.175877 248 3400ft 112kts
24-Jun-23 13:01 35.041547 -118.205716 219 4537ft 113kts
24-Jun-23 13:03 35.012648 -118.235167 218 5973ft 118kts
24-Jun-23 13:04 34.987431 -118.261060 217 7343ft 118kts
24-Jun-23 13:04 34.966604 -118.282441 217 8351ft 115kts
24-Jun-23 13:05 34.939649 -118.310022 218 9024ft 152kts
24-Jun-23 13:06 34.904484 -118.346201 218 9042ft 173kts
24-Jun-23 13:07 34.861352 -118.360933 151 9040ft 173kts
24-Jun-23 13:08 34.827148 -118.318585 133 9029ft 175kts
24-Jun-23 13:10 34.788486 -118.268243 133 9014ft 177kts
24-Jun-23 13:10 34.760595 -118.231861 133 9006ft 172kts
24-Jun-23 13:11 34.728136 -118.189567 133 9009ft 172kts
24-Jun-23 13:12 34.695052 -118.146479 133 9015ft 174kts
24-Jun-23 13:13 34.661561 -118.102917 133 9013ft 174kts
24-Jun-23 13:14 34.622581 -118.071321 181 9012ft 173kts
24-Jun-23 13:15 34.577660 -118.092333 202 9005ft 170kts
24-Jun-23 13:16 34.535180 -118.115035 202 9004ft 167kts
24-Jun-23 13:17 34.492664 -118.137606 201 9011ft 166kts
24-Jun-23 13:18 34.450431 -118.159984 201 9021ft 165kts
24-Jun-23 13:19 34.408227 -118.182318 201 9024ft 165kts
24-Jun-23 13:20 34.367137 -118.204039 201 9018ft 166kts
24-Jun-23 13:21 34.330149 -118.223559 201 9014ft 166kts
24-Jun-23 13:22 34.287947 -118.245807 201 9024ft 165kts
24-Jun-23 13:23 34.245562 -118.268171 201 9023ft 166kts
24-Jun-23 13:24 34.208726 -118.287552 201 9021ft 166kts
24-Jun-23 13:25 34.165769 -118.275683 153 9004ft 163kts
24-Jun-23 13:26 34.130519 -118.254929 153 8997ft 163kts
24-Jun-23 13:27 34.088995 -118.233473 177 8997ft 164kts
24-Jun-23 13:28 34.041494 -118.234768 180 8339ft 173kts
24-Jun-23 13:29 33.993941 -118.235723 179 7523ft 170kts
24-Jun-23 13:30 33.947277 -118.236737 179 7036ft 163kts
24-Jun-23 13:31 33.902316 -118.237615 179 7023ft 154kts
24-Jun-23 13:32 33.859956 -118.238485 179 7015ft 151kts
24-Jun-23 13:33 33.818195 -118.239322 179 7026ft 150kts
24-Jun-23 13:34 33.779975 -118.240001 179 7026ft 152kts
24-Jun-23 13:35 33.737112 -118.240705 179 7014ft 154kts
24-Jun-23 13:36 33.694478 -118.241218 179 7028ft 153kts
24-Jun-23 13:37 33.655831 -118.241647 179 7018ft 154kts
24-Jun-23 13:38 33.641157 -118.212888 67 6961ft 159kts
24-Jun-23 13:39 33.659256 -118.159302 68 5847ft 182kts
24-Jun-23 13:40 33.677446 -118.105967 68 4973ft 162kts
24-Jun-23 13:41 33.694288 -118.056566 68 4217ft 158kts
24-Jun-23 13:42 33.710855 -118.007698 68 3992ft 158kts
24-Jun-23 13:43 33.727262 -117.960018 68 3994ft 150kts
24-Jun-23 13:44 33.743324 -117.913493 68 4007ft 150kts
24-Jun-23 13:45 33.759313 -117.867156 68 4012ft 150kts
24-Jun-23 13:46 33.775392 -117.820526 68 4016ft 150kts
24-Jun-23 13:47 33.791502 -117.773842 68 4007ft 147kts
24-Jun-23 13:48 33.806994 -117.728983 68 4013ft 145kts
24-Jun-23 13:49 33.828053 -117.688102 49 4007ft 146kts
24-Jun-23 13:50 33.857206 -117.690788 299 4001ft 141kts
24-Jun-23 13:51 33.867817 -117.731525 233 4009ft 131kts
24-Jun-23 13:52 33.840373 -117.764091 205 3409ft 147kts
24-Jun-23 13:53 33.808240 -117.784799 208 2913ft 104kts
24-Jun-23 13:54 33.786118 -117.798796 207 2400ft 95kts
24-Jun-23 13:55 33.759594 -117.815663 207 1812ft 110kts
24-Jun-23 13:56 33.735589 -117.830861 207 1276ft 97kts
24-Jun-23 13:57 33.708236 -117.848251 208 670ft 102kts
24-Jun-23 13:58 33.687240 -117.861497 209 234ft 75kts
24-Jun-23 13:59 33.675840 -117.869399 277 59ft 13kts
24-Jun-23 14:00 33.675985 -117.870059 266 59ft 0kts
24-Jun-23 14:01 33.675631 -117.871151 37 59ft 0kts
24-Jun-23 14:02 33.675633 -117.871150 37 59ft 0kts
24-Jun-23 14:03 33.675634 -117.871148 37 59ft 0kts

Navigation Log

Ident Type
Flight plan parsing failed, navigation log unavailable